Time;durP1;ratioP1;P1;durP2;ratioP2;P2;SDS_P1;SDS_P2;PMS_P1;PMS_P2;Temp;Humidity;BMP_temperature;BMP_pressure;BME280_temperature;BME280_humidity;BME280_pressure;Samples;Min_cycle;Max_cycle;Signal;HPM_P1;HPM_P2
2023/03/03 00:00:05;;;;;;;;;;;;;;;0.11;100.00;102405.16;5010719;28;20016;-78
2023/03/03 00:02:30;;;;;;;;;;;;;;;0.03;100.00;102392.00;5011652;28;20339;-77
2023/03/03 00:04:55;;;;;;;;;;;;;;;0.16;100.00;102390.13;5011304;28;19913;-78
2023/03/03 00:07:22;;;;;;;;;;;;;;;0.10;100.00;102406.91;5009926;28;19940;-76
2023/03/03 00:09:47;;;;;;;;;;;;;;;0.10;100.00;102398.97;5016973;28;19928;-76
2023/03/03 00:12:22;;;;;;;;;;;;;;;0.12;100.00;102405.13;5040002;28;19932;-78
2023/03/03 00:14:48;;;;;;;;;;;;;;;0.06;100.00;102402.53;5027406;28;19924;-78
2023/03/03 00:17:16;;;;;;;;;;;;;;;0.10;100.00;102409.53;5004413;28;19921;-78
2023/03/03 00:19:43;;;;;;;;;;;;;;;0.16;100.00;102402.47;5005883;28;20449;-78
2023/03/03 00:22:14;;;;;;;;;;;;;;;0.20;100.00;102417.41;5014580;28;20291;-78
2023/03/03 00:24:39;;;;;;;;;;;;;;;0.24;100.00;102409.41;4999134;28;19921;-78
2023/03/03 00:27:16;;;;;;;;;;;;;;;0.20;100.00;102414.75;5020379;28;19917;-76
2023/03/03 00:29:45;;;;;;;;;;;;;;;0.22;100.00;102408.56;5002203;28;19925;-79
2023/03/03 00:32:13;;;;;;;;;;;;;;;0.36;100.00;102405.78;5006444;28;19928;-78
2023/03/03 00:34:40;;;;;;;;;;;;;;;0.16;100.00;102419.16;5023129;28;19921;-77
2023/03/03 00:37:10;;;;;;;;;;;;;;;0.22;100.00;102410.34;5025383;28;20012;-78
2023/03/03 00:39:38;;;;;;;;;;;;;;;0.24;100.00;102411.19;5021252;28;19944;-78
2023/03/03 00:42:11;;;;;;;;;;;;;;;0.26;100.00;102412.06;5018275;28;20368;-79
2023/03/03 00:44:41;;;;;;;;;;;;;;;0.27;100.00;102409.41;5024236;28;19921;-78
2023/03/03 00:47:26;;;;;;;;;;;;;;;0.34;100.00;102414.63;5003015;28;20005;-79
2023/03/03 00:49:52;;;;;;;;;;;;;;;0.40;100.00;102417.19;5013910;28;19927;-78
2023/03/03 00:52:18;;;;;;;;;;;;;;;0.37;100.00;102417.25;5021360;28;19926;-77
2023/03/03 00:54:43;;;;;;;;;;;;;;;0.49;100.00;102424.19;5008070;28;20381;-76
2023/03/03 00:57:09;;;;;;;;;;;;;;;0.45;100.00;102423.31;5024315;28;20395;-77
2023/03/03 00:59:34;;;;;;;;;;;;;;;0.47;100.00;102421.53;5004962;28;19921;-77
2023/03/03 01:01:59;;;;;;;;;;;;;;;0.39;100.00;102418.09;5021505;28;20316;-77
2023/03/03 01:04:24;;;;;;;;;;;;;;;0.39;100.00;102423.41;5023874;28;19952;-77
2023/03/03 01:06:49;;;;;;;;;;;;;;;0.37;100.00;102418.09;5024542;28;19959;-79
2023/03/03 01:09:15;;;;;;;;;;;;;;;0.35;100.00;102427.81;5022263;28;19925;-77
2023/03/03 01:11:40;;;;;;;;;;;;;;;0.41;100.00;102432.16;5020021;28;19976;-78
2023/03/03 01:14:05;;;;;;;;;;;;;;;0.39;100.00;102428.69;5002705;28;20394;-78
2023/03/03 01:16:31;;;;;;;;;;;;;;;0.43;100.00;102441.84;5008001;28;20636;-77
2023/03/03 01:18:56;;;;;;;;;;;;;;;0.41;100.00;102438.34;5006214;28;20419;-78
2023/03/03 01:21:21;;;;;;;;;;;;;;;0.42;100.00;102434.81;5018394;28;20422;-78
2023/03/03 01:23:47;;;;;;;;;;;;;;;0.47;100.00;102441.81;5024097;28;20683;-77
2023/03/03 01:26:12;;;;;;;;;;;;;;;0.46;100.00;102432.13;5025702;28;20443;-77
2023/03/03 01:28:37;;;;;;;;;;;;;;;0.42;100.00;102424.22;5019434;28;19921;-77
2023/03/03 01:31:03;;;;;;;;;;;;;;;0.45;100.00;102431.25;5001790;28;20353;-77
2023/03/03 01:33:30;;;;;;;;;;;;;;;0.44;100.00;102426.84;5020235;28;19955;-77
2023/03/03 01:35:55;;;;;;;;;;;;;;;0.32;100.00;102429.63;5013847;28;19929;-76
2023/03/03 01:38:21;;;;;;;;;;;;;;;0.38;100.00;102426.94;5015540;28;19928;-78
2023/03/03 01:40:51;;;;;;;;;;;;;;;0.31;100.00;102430.50;5019696;28;19932;-77
2023/03/03 01:43:16;;;;;;;;;;;;;;;0.29;100.00;102435.78;5016621;28;20039;-77
2023/03/03 01:45:41;;;;;;;;;;;;;;;0.40;100.00;102430.41;5016223;28;19925;-77
2023/03/03 01:48:13;;;;;;;;;;;;;;;0.39;100.00;102432.19;5019581;28;20304;-78
2023/03/03 01:50:51;;;;;;;;;;;;;;;0.43;100.00;102433.03;5015914;28;20092;-77
2023/03/03 01:53:18;;;;;;;;;;;;;;;0.44;100.00;102429.50;5005830;28;19925;-78
2023/03/03 01:55:43;;;;;;;;;;;;;;;0.48;100.00;102435.63;4999818;28;19929;-77
2023/03/03 01:58:28;;;;;;;;;;;;;;;0.41;100.00;102434.78;5002795;28;20413;-76
2023/03/03 02:00:55;;;;;;;;;;;;;;;0.29;100.00;102443.72;5017282;28;19940;-78
2023/03/03 02:03:21;;;;;;;;;;;;;;;0.29;100.00;102439.31;5020784;28;20039;-77
2023/03/03 02:05:46;;;;;;;;;;;;;;;0.42;100.00;102434.81;5018845;28;20391;-78
2023/03/03 02:08:11;;;;;;;;;;;;;;;0.37;100.00;102436.59;5018736;28;19957;-77
2023/03/03 02:10:36;;;;;;;;;;;;;;;0.36;100.00;102444.56;5014848;28;19921;-78
2023/03/03 02:13:02;;;;;;;;;;;;;;;0.39;100.00;102434.81;5018007;28;19932;-77
2023/03/03 02:15:31;;;;;;;;;;;;;;;0.42;100.00;102433.91;5019483;28;20592;-78
2023/03/03 02:17:58;;;;;;;;;;;;;;;0.47;100.00;102429.47;5004939;28;19920;-80
2023/03/03 02:20:23;;;;;;;;;;;;;;;0.43;100.00;102439.19;5014447;28;20280;-78
2023/03/03 02:22:54;;;;;;;;;;;;;;;0.38;100.00;102437.50;5019869;28;19921;-77
2023/03/03 02:25:21;;;;;;;;;;;;;;;0.35;100.00;102437.53;5022343;28;19917;-77
2023/03/03 02:27:47;;;;;;;;;;;;;;;0.35;100.00;102437.53;5004094;28;20342;-78
2023/03/03 02:30:17;;;;;;;;;;;;;;;0.32;100.00;102438.41;5015985;28;19928;-77
2023/03/03 02:32:42;;;;;;;;;;;;;;;0.23;100.00;102439.38;5003458;28;20254;-76
2023/03/03 02:35:40;;;;;;;;;;;;;;;0.21;100.00;102442.94;5020447;28;19937;-78
2023/03/03 02:38:14;;;;;;;;;;;;;;;0.09;100.00;102443.91;4973133;28;19925;-76
2023/03/03 02:40:41;;;;;;;;;;;;;;;0.21;100.00;102435.88;5001666;28;19921;-78
2023/03/03 02:43:06;;;;;;;;;;;;;;;0.20;100.00;102441.19;5018072;28;19921;-79
2023/03/03 02:45:31;;;;;;;;;;;;;;;0.13;100.00;102445.63;5014532;28;19954;-77
2023/03/03 02:47:56;;;;;;;;;;;;;;;0.00;100.00;102436.94;5004496;28;20288;-78
2023/03/03 02:50:22;;;;;;;;;;;;;;;0.04;100.00;102435.13;5001622;28;19932;-76
2023/03/03 02:52:47;;;;;;;;;;;;;;;-0.06;100.00;102435.19;5012072;28;19956;-76
2023/03/03 02:55:12;;;;;;;;;;;;;;;-0.13;100.00;102438.75;4997040;28;20012;-77
2023/03/03 02:57:37;;;;;;;;;;;;;;;-0.08;100.00;102436.13;5002500;28;19918;-78
2023/03/03 03:00:03;;;;;;;;;;;;;;;-0.01;100.00;102446.63;5000647;28;19964;-76
2023/03/03 03:02:28;;;;;;;;;;;;;;;-0.03;100.00;102440.47;5003318;28;20019;-76
2023/03/03 03:04:53;;;;;;;;;;;;;;;0.02;100.00;102437.78;5005232;28;19921;-78
2023/03/03 03:07:18;;;;;;;;;;;;;;;0.11;100.00;102442.13;5021138;28;19921;-80
2023/03/03 03:09:44;;;;;;;;;;;;;;;0.10;100.00;102443.88;5003508;28;19928;-78
2023/03/03 03:12:09;;;;;;;;;;;;;;;0.13;100.00;102440.34;5006472;28;19925;-78
2023/03/03 03:14:34;;;;;;;;;;;;;;;0.09;100.00;102444.78;5022397;28;19928;-79
2023/03/03 03:17:00;;;;;;;;;;;;;;;0.11;100.00;102442.13;5017926;28;19939;-78
2023/03/03 03:19:25;;;;;;;;;;;;;;;0.07;100.00;102448.31;5005035;28;20533;-79
2023/03/03 03:21:50;;;;;;;;;;;;;;;-0.04;100.00;102443.13;5006036;28;19917;-76
2023/03/03 03:24:17;;;;;;;;;;;;;;;-0.02;100.00;102444.00;5023225;28;19925;-78
2023/03/03 03:26:42;;;;;;;;;;;;;;;0.03;100.00;102436.88;5008456;28;20394;-77
2023/03/03 03:29:07;;;;;;;;;;;;;;;0.01;100.00;102445.72;5023186;28;19921;-78
2023/03/03 03:31:33;;;;;;;;;;;;;;;0.07;100.00;102441.25;5004774;28;19929;-79
2023/03/03 03:33:59;;;;;;;;;;;;;;;0.16;100.00;102448.22;5026291;28;19921;-78
2023/03/03 03:36:25;;;;;;;;;;;;;;;0.17;100.00;102443.84;5004748;28;19921;-77
2023/03/03 03:38:51;;;;;;;;;;;;;;;0.16;100.00;102442.94;5014074;28;19921;-77
2023/03/03 03:41:16;;;;;;;;;;;;;;;0.12;100.00;102444.75;5027441;28;19921;-78
2023/03/03 03:43:41;;;;;;;;;;;;;;;0.09;100.00;102446.56;5022333;28;20031;-78
2023/03/03 03:46:06;;;;;;;;;;;;;;;0.13;100.00;102450.94;5022517;28;19921;-78
2023/03/03 03:48:32;;;;;;;;;;;;;;;0.31;100.00;102443.72;5027008;28;19921;-78
2023/03/03 03:50:57;;;;;;;;;;;;;;;0.26;100.00;102449.06;5009169;28;19972;-78
2023/03/03 03:53:22;;;;;;;;;;;;;;;0.34;100.00;102455.13;5026751;28;19930;-79
2023/03/03 03:55:47;;;;;;;;;;;;;;;0.31;100.00;102456.94;5015685;28;19928;-78
2023/03/03 03:58:13;;;;;;;;;;;;;;;0.29;100.00;102449.91;5023933;28;19921;-78
2023/03/03 04:00:40;;;;;;;;;;;;;;;0.30;100.00;102456.03;5009920;28;19964;-78
2023/03/03 04:03:05;;;;;;;;;;;;;;;0.34;100.00;102452.47;5006376;28;20415;-76
2023/03/03 04:05:30;;;;;;;;;;;;;;;0.29;100.00;102452.53;5011772;28;19957;-78
2023/03/03 04:07:55;;;;;;;;;;;;;;;0.40;100.00;102451.53;5026650;28;20367;-78
2023/03/03 04:10:21;;;;;;;;;;;;;;;0.41;100.00;102448.00;5029003;28;19921;-76
2023/03/03 04:12:46;;;;;;;;;;;;;;;0.41;100.00;102450.66;5014341;28;19925;-77
2023/03/03 04:15:12;;;;;;;;;;;;;;;0.49;100.00;102454.09;5014838;28;20701;-77
2023/03/03 04:17:37;;;;;;;;;;;;;;;0.49;100.00;102454.09;5005765;28;19947;-77
2023/03/03 04:20:03;;;;;;;;;;;;;;;0.51;100.00;102441.75;5025314;28;20287;-77
2023/03/03 04:22:32;;;;;;;;;;;;;;;0.57;100.00;102447.00;5004406;28;19921;-78
2023/03/03 04:24:58;;;;;;;;;;;;;;;0.50;100.00;102455.00;5028169;28;20375;-76
2023/03/03 04:27:23;;;;;;;;;;;;;;;0.48;100.00;102452.34;5027543;28;19927;-77
2023/03/03 04:29:48;;;;;;;;;;;;;;;0.44;100.00;102451.53;5024723;28;19927;-77
2023/03/03 04:32:14;;;;;;;;;;;;;;;0.53;100.00;102445.25;5008003;28;19925;-77
2023/03/03 04:34:39;;;;;;;;;;;;;;;0.59;100.00;102444.31;5029144;28;19964;-77
2023/03/03 04:37:04;;;;;;;;;;;;;;;0.62;100.00;102440.78;5025583;28;20044;-77
2023/03/03 04:39:29;;;;;;;;;;;;;;;0.58;100.00;102443.47;5024332;28;19925;-78
2023/03/03 04:41:55;;;;;;;;;;;;;;;0.58;100.00;102443.47;5006172;28;20340;-76
2023/03/03 04:44:21;;;;;;;;;;;;;;;0.56;100.00;102445.25;5010689;28;20348;-77
2023/03/03 04:46:46;;;;;;;;;;;;;;;0.58;100.00;102454.03;5026173;28;20375;-78
2023/03/03 04:49:11;;;;;;;;;;;;;;;0.62;100.00;102454.00;5026276;28;20359;-78
2023/03/03 04:51:37;;;;;;;;;;;;;;;0.63;100.00;102453.97;5026201;28;19926;-79
2023/03/03 04:54:02;;;;;;;;;;;;;;;0.69;100.00;102450.38;5026781;28;19921;-78
2023/03/03 04:56:29;;;;;;;;;;;;;;;0.67;100.00;102450.41;5027925;28;19921;-79
2023/03/03 04:58:54;;;;;;;;;;;;;;;0.76;100.00;102457.38;5024401;28;19920;-77
2023/03/03 05:01:20;;;;;;;;;;;;;;;0.80;100.00;102463.47;5034923;28;20555;-79
2023/03/03 05:03:45;;;;;;;;;;;;;;;0.81;100.00;102466.13;5024805;28;20110;-79
2023/03/03 05:06:10;;;;;;;;;;;;;;;0.77;100.00;102460.91;5010409;28;19921;-78
2023/03/03 05:08:35;;;;;;;;;;;;;;;0.75;100.00;102468.84;5025763;28;20447;-79
2023/03/03 05:11:01;;;;;;;;;;;;;;;0.76;100.00;102469.72;5025377;28;19925;-78
2023/03/03 05:13:26;;;;;;;;;;;;;;;0.76;100.00;102469.72;5012033;28;19925;-79
2023/03/03 05:15:52;;;;;;;;;;;;;;;0.72;100.00;102468.88;5026923;28;20363;-77
2023/03/03 05:18:18;;;;;;;;;;;;;;;0.78;100.00;102475.88;5027441;28;19917;-78
2023/03/03 05:20:44;;;;;;;;;;;;;;;0.88;100.00;102477.50;5009479;28;19967;-80
2023/03/03 05:23:09;;;;;;;;;;;;;;;0.91;100.00;102473.97;5026510;28;19921;-76
2023/03/03 05:25:34;;;;;;;;;;;;;;;0.85;100.00;102478.44;5008582;28;19918;-79
2023/03/03 05:27:59;;;;;;;;;;;;;;;0.88;100.00;102472.22;5000201;28;19932;-79
2023/03/03 05:30:25;;;;;;;;;;;;;;;0.91;100.00;102466.03;5023352;28;19967;-78
2023/03/03 05:32:50;;;;;;;;;;;;;;;0.91;100.00;102472.19;5025524;28;20342;-77
2023/03/03 05:35:15;;;;;;;;;;;;;;;0.88;100.00;102469.56;5029402;28;19955;-79
2023/03/03 05:37:45;;;;;;;;;;;;;;;0.87;100.00;102466.06;5027317;28;19921;-77
2023/03/03 05:40:11;;;;;;;;;;;;;;;0.89;100.00;102466.94;5026236;28;20005;-78
2023/03/03 05:42:36;;;;;;;;;;;;;;;0.91;100.00;102461.63;5021148;28;19921;-79
2023/03/03 05:45:01;;;;;;;;;;;;;;;0.91;100.00;102463.41;5024515;28;19917;-79
2023/03/03 05:47:26;;;;;;;;;;;;;;;0.91;100.00;102461.63;5021722;28;19921;-78
2023/03/03 05:49:52;;;;;;;;;;;;;;;0.87;100.00;102463.44;5005844;28;20137;-77
2023/03/03 05:52:17;;;;;;;;;;;;;;;0.87;100.00;102467.81;5020226;28;19925;-78
2023/03/03 05:54:42;;;;;;;;;;;;;;;0.93;100.00;102465.13;5017822;28;20077;-78
2023/03/03 05:57:07;;;;;;;;;;;;;;;0.85;100.00;102465.22;5021354;28;20019;-77
2023/03/03 05:59:32;;;;;;;;;;;;;;;0.86;100.00;102464.31;5025033;28;20287;-78
2023/03/03 06:01:58;;;;;;;;;;;;;;;0.87;100.00;102466.06;5020476;28;20377;-78
2023/03/03 06:04:23;;;;;;;;;;;;;;;0.91;100.00;102466.03;5016920;28;20443;-78
2023/03/03 06:06:48;;;;;;;;;;;;;;;0.93;100.00;102466.91;5016027;28;20423;-79
2023/03/03 06:09:14;;;;;;;;;;;;;;;0.99;100.00;102473.00;5002059;28;20368;-78
2023/03/03 06:11:39;;;;;;;;;;;;;;;1.07;100.00;102472.00;5004531;28;19944;-79
2023/03/03 06:14:04;;;;;;;;;;;;;;;1.04;100.00;102480.88;5001204;28;19928;-78
2023/03/03 06:16:30;;;;;;;;;;;;;;;1.07;100.00;102479.94;5017661;28;19959;-78
2023/03/03 06:18:55;;;;;;;;;;;;;;;1.11;100.00;102489.59;5012030;28;20029;-78
2023/03/03 06:21:20;;;;;;;;;;;;;;;1.17;100.00;102485.13;5016640;28;19921;-79
2023/03/03 06:23:45;;;;;;;;;;;;;;;1.18;100.00;102492.19;5017282;28;20002;-78
2023/03/03 06:26:10;;;;;;;;;;;;;;;1.10;100.00;102498.44;5018455;28;19966;-79
2023/03/03 06:28:36;;;;;;;;;;;;;;;1.17;100.00;102495.72;4998686;28;19959;-79
2023/03/03 06:31:01;;;;;;;;;;;;;;;1.14;100.00;102501.03;5017598;28;19929;-79
2023/03/03 06:33:26;;;;;;;;;;;;;;;1.14;100.00;102505.44;5015947;28;19917;-79
2023/03/03 06:35:52;;;;;;;;;;;;;;;1.13;100.00;102511.63;5002305;28;19967;-78
2023/03/03 06:38:17;;;;;;;;;;;;;;;1.13;100.00;102514.28;5017481;28;19941;-78
2023/03/03 06:40:43;;;;;;;;;;;;;;;1.17;100.00;102513.34;5012306;28;19959;-79
2023/03/03 06:43:08;;;;;;;;;;;;;;;1.19;100.00;102517.72;5016828;28;19921;-79
2023/03/03 06:45:34;;;;;;;;;;;;;;;1.20;100.00;102522.13;5017862;28;20405;-79
2023/03/03 06:47:59;;;;;;;;;;;;;;;1.17;100.00;102519.53;5014883;28;19928;-79
2023/03/03 06:50:24;;;;;;;;;;;;;;;1.20;100.00;102524.75;5000106;28;19962;-75
2023/03/03 06:52:50;;;;;;;;;;;;;;;1.27;100.00;102528.25;5016326;28;19932;-76
2023/03/03 06:55:20;;;;;;;;;;;;;;;1.20;100.00;102529.19;5000759;28;19959;-78
2023/03/03 06:57:45;;;;;;;;;;;;;;;1.13;100.00;102533.69;5018039;28;20402;-77
2023/03/03 07:00:15;;;;;;;;;;;;;;;1.23;100.00;102537.09;5019659;28;19921;-76
2023/03/03 07:02:40;;;;;;;;;;;;;;;1.26;100.00;102537.06;5021854;28;20438;-79
2023/03/03 07:05:08;;;;;;;;;;;;;;;1.13;100.00;102538.97;5024126;28;19960;-75
2023/03/03 07:07:34;;;;;;;;;;;;;;;1.11;100.00;102538.13;5024703;28;20259;-75
2023/03/03 07:09:59;;;;;;;;;;;;;;;1.17;100.00;102535.41;5024907;28;19931;-75
2023/03/03 07:12:26;;;;;;;;;;;;;;;1.18;100.00;102544.22;5005942;28;19925;-76
2023/03/03 07:15:00;;;;;;;;;;;;;;;1.13;100.00;102544.25;5021025;28;19936;-76
2023/03/03 07:17:26;;;;;;;;;;;;;;;1.16;100.00;102546.00;5021629;28;19925;-75
2023/03/03 07:19:51;;;;;;;;;;;;;;;1.22;100.00;102540.63;5006691;28;19921;-76
2023/03/03 07:22:17;;;;;;;;;;;;;;;1.18;100.00;102547.75;5017824;28;19961;-77
2023/03/03 07:24:43;;;;;;;;;;;;;;;1.24;100.00;102553.84;5011964;28;20249;-77
2023/03/03 07:27:18;;;;;;;;;;;;;;;1.34;100.00;102560.78;5025525;28;20326;-77
2023/03/03 07:29:45;;;;;;;;;;;;;;;1.43;100.00;102559.81;5024210;28;19928;-77
2023/03/03 07:32:15;;;;;;;;;;;;;;;1.47;100.00;102565.03;5005754;28;19925;-76
2023/03/03 07:34:45;;;;;;;;;;;;;;;1.47;100.00;102565.03;5030160;28;19927;-77
2023/03/03 07:37:20;;;;;;;;;;;;;;;1.55;100.00;102570.25;5026659;28;19925;-77
2023/03/03 07:39:46;;;;;;;;;;;;;;;1.61;100.00;102575.47;5026854;28;20412;-77
2023/03/03 07:42:18;;;;;;;;;;;;;;;1.55;100.00;102570.25;5024276;28;19921;-77
2023/03/03 07:44:45;;;;;;;;;;;;;;;1.50;100.00;102572.94;5004038;28;19917;-77
2023/03/03 07:47:29;;;;;;;;;;;;;;;1.60;100.00;102579.00;5022941;28;19921;-77
2023/03/03 07:49:56;;;;;;;;;;;;;;;1.57;100.00;102573.78;5004098;28;19921;-77
2023/03/03 07:52:25;;;;;;;;;;;;;;;1.53;100.00;102576.44;5008381;28;20102;-77
2023/03/03 07:54:50;;;;;;;;;;;;;;;1.58;100.00;102583.47;5024325;28;20386;-78
2023/03/03 07:57:21;;;;;;;;;;;;;;;1.68;100.00;102583.34;5008967;28;19921;-78
2023/03/03 07:59:47;;;;;;;;;;;;;;;1.73;100.00;102592.09;5023036;28;19921;-76
2023/03/03 08:02:31;;;;;;;;;;;;;;;1.63;100.00;102586.06;5008391;28;19976;-77
2023/03/03 08:04:56;;;;;;;;;;;;;;;1.47;100.00;102564.16;5029619;28;20278;-77
2023/03/03 08:07:22;;;;;;;;;;;;;;;1.70;100.00;102581.53;5007540;28;19940;-77
2023/03/03 08:09:51;;;;;;;;;;;;;;;1.69;100.00;102588.63;5025792;28;19925;-77
2023/03/03 08:12:35;;;;;;;;;;;;;;;1.72;100.00;102591.22;5040967;28;19925;-77
2023/03/03 08:15:09;;;;;;;;;;;;;;;1.84;100.00;102586.66;5025059;28;20574;-77
2023/03/03 08:17:35;;;;;;;;;;;;;;;1.90;100.00;102595.41;5026134;28;20039;-77
2023/03/03 08:20:00;;;;;;;;;;;;;;;1.88;100.00;102598.97;5022538;28;19924;-77
2023/03/03 08:22:29;;;;;;;;;;;;;;;1.74;100.00;102602.66;5017406;28;19917;-77
2023/03/03 08:24:55;;;;;;;;;;;;;;;1.75;100.00;102601.78;5001945;28;19921;-77
2023/03/03 08:27:20;;;;;;;;;;;;;;;1.80;100.00;102602.59;5009389;28;20336;-75
2023/03/03 08:29:45;;;;;;;;;;;;;;;1.81;100.00;102603.47;5023096;28;19921;-78
2023/03/03 08:32:10;;;;;;;;;;;;;;;1.97;100.00;102606.81;5012036;28;19947;-77
2023/03/03 08:34:36;;;;;;;;;;;;;;;1.91;100.00;102610.41;5026221;28;19921;-77
2023/03/03 08:37:01;;;;;;;;;;;;;;;2.02;100.00;102612.03;5013162;28;19927;-78
2023/03/03 08:39:26;;;;;;;;;;;;;;;2.15;100.00;102613.63;5015710;28;19948;-77
2023/03/03 08:41:51;;;;;;;;;;;;;;;2.17;100.00;102617.13;4984159;28;21742;-77
2023/03/03 08:44:18;;;;;;;;;;;;;;;2.24;100.00;102617.94;4998812;28;19963;-77
2023/03/03 08:46:43;;;;;;;;;;;;;;;2.15;100.00;102623.34;4989850;28;20290;-77
2023/03/03 08:49:08;;;;;;;;;;;;;;;2.25;100.00;102627.63;5020720;28;19944;-77
2023/03/03 08:51:34;;;;;;;;;;;;;;;2.20;100.00;102622.38;4997474;28;20406;-77
2023/03/03 08:53:59;;;;;;;;;;;;;;;2.25;100.00;102612.59;5019706;28;19925;-77
2023/03/03 08:56:24;;;;;;;;;;;;;;;2.35;100.00;102612.47;5015498;28;19978;-76
2023/03/03 08:58:49;;;;;;;;;;;;;;;2.25;100.00;102632.94;5001679;28;19943;-76
2023/03/03 09:01:17;;;;;;;;;;;;;;;2.30;100.00;102622.25;5019811;28;19928;-76
2023/03/03 09:03:43;;;;;;;;;;;;;;;2.40;100.00;102622.09;5016136;28;20208;-76
2023/03/03 09:06:08;;;;;;;;;;;;;;;2.57;100.00;102626.25;5000463;28;19921;-76
2023/03/03 09:08:33;;;;;;;;;;;;;;;2.66;100.00;102622.59;5009834;28;19925;-78
2023/03/03 09:10:59;;;;;;;;;;;;;;;2.72;100.00;102622.50;5007460;28;19983;-78
2023/03/03 09:13:24;;;;;;;;;;;;;;;2.77;100.00;102625.94;5014457;28;20288;-77
2023/03/03 09:15:50;;;;;;;;;;;;;;;2.65;100.00;102629.69;5013327;28;19975;-77
2023/03/03 09:18:15;;;;;;;;;;;;;;;2.69;100.00;102627.84;5015700;28;20378;-75
2023/03/03 09:20:41;;;;;;;;;;;;;;;2.72;100.00;102641.06;5014950;28;19925;-77
2023/03/03 09:23:16;;;;;;;;;;;;;;;2.62;100.00;102640.34;5021228;28;19921;-76
2023/03/03 09:25:41;;;;;;;;;;;;;;;2.57;100.00;102643.97;5015217;28;20327;-76
2023/03/03 09:28:12;;;;;;;;;;;;;;;2.63;100.00;102643.88;5009336;28;20390;-77
2023/03/03 09:30:38;;;;;;;;;;;;;;;2.60;100.00;102641.28;4993495;28;19925;-80
2023/03/03 09:33:36;;;;;;;;;;;;;;;2.61;100.00;102640.38;5025880;28;19929;-78
2023/03/03 09:36:02;;;;;;;;;;;;;;;2.73;100.00;102637.50;4973492;28;20609;-78
2023/03/03 09:38:31;;;;;;;;;;;;;;;2.86;100.00;102643.50;5011577;28;20399;-78
2023/03/03 09:41:03;;;;;;;;;;;;;;;2.90;100.00;102645.19;5000580;28;19921;-78
2023/03/03 09:43:36;;;;;;;;;;;;;;;2.89;100.00;102645.25;5013734;28;20377;-78
2023/03/03 09:46:20;;;;;;;;;;;;;;;2.87;100.00;102642.59;5011337;28;20524;-78
2023/03/03 09:48:45;;;;;;;;;;;;;;;3.15;100.00;102647.44;5010236;28;19961;-80
2023/03/03 09:51:14;;;;;;;;;;;;;;;3.27;100.00;102646.34;5015207;28;20019;-79
2023/03/03 09:53:52;;;;;;;;;;;;;;;3.29;100.00;102644.53;5016595;28;20355;-78
2023/03/03 09:56:43;;;;;;;;;;;;;;;3.40;100.00;102646.97;5011731;28;19921;-78
2023/03/03 09:59:29;;;;;;;;;;;;;;;3.49;100.00;102643.28;5008524;28;19943;-78
2023/03/03 10:02:09;;;;;;;;;;;;;;;3.62;100.00;102650.13;5002741;28;20018;-79
2023/03/03 10:04:37;;;;;;;;;;;;;;;3.55;100.00;102645.81;5002027;28;19932;-77
2023/03/03 10:07:21;;;;;;;;;;;;;;;3.66;100.00;102641.19;5017216;28;19921;-78
2023/03/03 10:09:46;;;;;;;;;;;;;;;3.78;100.00;102648.03;5016514;28;20133;-78
2023/03/03 10:12:12;;;;;;;;;;;;;;;3.82;100.00;102646.19;5019719;28;20276;-78
2023/03/03 10:14:56;;;;;;;;;;;;;;;3.93;100.00;102653.94;5020954;28;20375;-78
2023/03/03 10:17:27;;;;;;;;;;;;;;;3.98;100.00;102646.75;5014780;28;19926;-79
2023/03/03 10:19:58;;;;;;;;;;;;;;;4.05;100.00;102651.03;5012881;28;19931;-79
2023/03/03 10:22:29;;;;;;;;;;;;;;;4.08;100.00;102652.72;4997942;28;21237;-78
2023/03/03 10:24:58;;;;;;;;;;;;;;;4.03;100.00;102653.69;5016824;28;19978;-78
2023/03/03 10:27:31;;;;;;;;;;;;;;;4.14;100.00;102652.63;5017750;28;19978;-79
2023/03/03 10:30:02;;;;;;;;;;;;;;;4.11;100.00;102656.19;5013638;28;21430;-79
2023/03/03 10:32:48;;;;;;;;;;;;;;;4.06;100.00;102658.09;5009095;28;20418;-78
2023/03/03 10:35:25;;;;;;;;;;;;;;;4.01;100.00;102652.84;5011929;28;20387;-78
2023/03/03 10:38:10;;;;;;;;;;;;;;;4.22;100.00;102653.34;5019758;28;20545;-78
2023/03/03 10:40:41;;;;;;;;;;;;;;;4.20;100.00;102653.34;5017456;28;20394;-78
2023/03/03 10:43:22;;;;;;;;;;;;;;;4.16;100.00;102648.13;5015229;28;19917;-78
2023/03/03 10:45:53;;;;;;;;;;;;;;;4.29;100.00;102654.06;5014442;28;20000;-78
2023/03/03 10:48:37;;;;;;;;;;;;;;;4.47;100.00;102645.66;5021758;28;19960;-79
2023/03/03 10:51:02;;;;;;;;;;;;;;;4.75;100.00;102650.31;5017712;28;20426;-78
2023/03/03 10:53:33;;;;;;;;;;;;;;;4.85;100.00;102650.97;5019633;28;20024;-78
2023/03/03 10:56:14;;;;;;;;;;;;;;;5.17;100.00;102643.97;5020628;28;19921;-79
2023/03/03 10:58:43;;;;;;;;;;;;;;;5.58;100.00;102642.88;5028445;28;20393;-79
2023/03/03 11:01:26;;;;;;;;;;;;;;;5.58;100.00;102641.09;5012340;28;19925;-78
2023/03/03 11:04:06;;;;;;;;;;;;;;;5.76;100.00;102634.38;5009076;28;19941;-78
2023/03/03 11:06:51;;;;;;;;;;;;;;;5.85;100.00;102639.41;5029699;28;19948;-79
2023/03/03 11:09:31;;;;;;;;;;;;;;;5.94;100.00;102640.97;5032628;28;19921;-78
2023/03/03 11:12:07;;;;;;;;;;;;;;;6.03;100.00;102637.19;5025930;28;20003;-78
2023/03/03 11:14:36;;;;;;;;;;;;;;;6.22;100.00;102641.94;5014212;28;19920;-78
2023/03/03 11:17:12;;;;;;;;;;;;;;;6.52;100.00;102631.25;5005027;28;20387;-79
2023/03/03 11:19:56;;;;;;;;;;;;;;;6.62;100.00;102637.16;5026153;28;19921;-78
2023/03/03 11:22:37;;;;;;;;;;;;;;;7.15;100.00;102630.97;5026167;28;20015;-78
2023/03/03 11:25:03;;;;;;;;;;;;;;;7.26;100.00;102627.91;5019683;28;19981;-79
2023/03/03 11:27:31;;;;;;;;;;;;;;;7.58;99.71;102633.88;5020856;28;21316;-79
2023/03/03 11:30:00;;;;;;;;;;;;;;;7.92;96.08;102624.59;5004002;28;20004;-78
2023/03/03 11:32:31;;;;;;;;;;;;;;;8.55;92.68;102623.97;5032759;28;20421;-79
2023/03/03 11:35:02;;;;;;;;;;;;;;;8.58;85.72;102625.66;5026019;28;20592;-79
2023/03/03 11:37:36;;;;;;;;;;;;;;;8.12;86.70;102626.53;5016142;28;20553;-78
2023/03/03 11:40:05;;;;;;;;;;;;;;;10.17;74.83;102612.41;5000840;28;19975;-78
2023/03/03 11:42:43;;;;;;;;;;;;;;;10.21;66.96;102611.34;5005972;28;20367;-78
2023/03/03 11:45:14;;;;;;;;;;;;;;;10.41;68.04;102607.72;5013220;28;19924;-78
2023/03/03 11:48:05;;;;;;;;;;;;;;;9.89;67.43;102611.03;5019059;28;19921;-79
2023/03/03 11:51:03;;;;;;;;;;;;;;;10.09;68.29;102610.09;4990392;28;19932;-79
2023/03/03 11:53:31;;;;;;;;;;;;;;;10.47;66.17;102602.03;4977279;28;20472;-80
2023/03/03 11:55:59;;;;;;;;;;;;;;;11.21;62.70;102610.88;5004181;28;19923;-81
2023/03/03 11:58:24;;;;;;;;;;;;;;;10.89;64.31;102605.31;5033038;28;20244;-82
2023/03/03 12:00:57;;;;;;;;;;;;;;;9.90;69.42;102602.94;5020561;28;20489;-80
2023/03/03 12:03:25;;;;;;;;;;;;;;;9.83;69.17;102606.84;5024776;28;20407;-81
2023/03/03 12:05:55;;;;;;;;;;;;;;;11.70;67.75;102602.00;5024064;28;19929;-81
2023/03/03 12:08:33;;;;;;;;;;;;;;;13.52;56.53;102596.94;5023546;28;20016;-79
2023/03/03 12:11:08;;;;;;;;;;;;;;;15.00;55.74;102591.81;4993986;28;20336;-79
2023/03/03 12:13:35;;;;;;;;;;;;;;;14.89;48.73;102589.00;5017172;28;19928;-80
2023/03/03 12:16:01;;;;;;;;;;;;;;;13.69;48.94;102584.22;5015329;28;20068;-81
2023/03/03 12:18:26;;;;;;;;;;;;;;;13.84;51.51;102580.53;5013175;28;20324;-80
2023/03/03 12:20:51;;;;;;;;;;;;;;;14.82;50.90;102579.56;5004194;28;19921;-80
2023/03/03 12:23:29;;;;;;;;;;;;;;;14.94;48.31;102576.03;5019091;28;19921;-80
2023/03/03 12:25:59;;;;;;;;;;;;;;;14.27;47.89;102584.13;5008632;28;20282;-80
2023/03/03 12:28:26;;;;;;;;;;;;;;;14.16;49.99;102579.44;4994532;28;19963;-80
2023/03/03 12:31:10;;;;;;;;;;;;;;;13.70;49.22;102581.41;4993590;28;19928;-80
2023/03/03 12:33:52;;;;;;;;;;;;;;;13.84;50.74;102571.59;5023747;28;20241;-80
2023/03/03 12:36:29;;;;;;;;;;;;;;;14.29;50.43;102572.25;5009844;28;19928;-79
2023/03/03 12:38:55;;;;;;;;;;;;;;;14.71;48.28;102572.19;5014136;28;19921;-79
2023/03/03 12:41:22;;;;;;;;;;;;;;;15.79;46.70;102571.03;5011743;28;19928;-80